Time;durP1;ratioP1;P1;durP2;ratioP2;P2;SDS_P1;SDS_P2;PMS_P1;PMS_P2;Temp;Humidity;BMP_temperature;BMP_pressure;BME280_temperature;BME280_humidity;BME280_pressure;Samples;Min_cycle;Max_cycle;Signal;HPM_P1;HPM_P2
2023/10/13 00:00:25;;;;;;;15.48;12.13;;;;;;;;;;5093301;28;20089;-77
2023/10/13 00:02:52;;;;;;;13.13;11.20;;;;;;;;;;5085979;28;20035;-78
2023/10/13 00:05:18;;;;;;;13.10;10.45;;;;;;;;;;5096326;28;20500;-78
2023/10/13 00:07:43;;;;;;;15.13;11.70;;;;;;;;;;5094738;28;20036;-78
2023/10/13 00:10:18;;;;;;;13.95;11.45;;;;;;;;;;5096418;28;20465;-78
2023/10/13 00:12:49;;;;;;;11.90;10.02;;;;;;;;;;5087545;28;20065;-78
2023/10/13 00:15:17;;;;;;;14.27;10.80;;;;;;;;;;5087368;28;20139;-77
2023/10/13 00:17:42;;;;;;;14.10;10.48;;;;;;;;;;5090491;28;20040;-78
2023/10/13 00:20:27;;;;;;;15.85;13.75;;;;;;;;;;5090270;28;20102;-76
2023/10/13 00:22:53;;;;;;;21.60;17.20;;;;;;;;;;5092798;28;20084;-77
2023/10/13 00:25:26;;;;;;;18.90;14.68;;;;;;;;;;5096698;28;20032;-80
2023/10/13 00:27:52;;;;;;;15.25;11.98;;;;;;;;;;5101257;28;20114;-76
2023/10/13 00:32:44;;;;;;;14.63;12.13;;;;;;;;;;5098040;28;20039;-77
2023/10/13 00:35:15;;;;;;;11.10;9.45;;;;;;;;;;5092259;28;20066;-77
2023/10/13 00:37:44;;;;;;;13.02;9.93;;;;;;;;;;5095655;28;20102;-80
2023/10/13 00:40:27;;;;;;;10.38;8.02;;;;;;;;;;5099399;28;20427;-77
2023/10/13 00:42:53;;;;;;;9.57;8.35;;;;;;;;;;5094462;28;20024;-78
2023/10/13 00:45:19;;;;;;;10.35;8.32;;;;;;;;;;5093076;28;20084;-78
2023/10/13 00:47:49;;;;;;;11.20;8.25;;;;;;;;;;5097076;28;20023;-79
2023/10/13 00:50:17;;;;;;;9.93;8.27;;;;;;;;;;5094832;28;20030;-78
2023/10/13 00:52:46;;;;;;;8.90;8.00;;;;;;;;;;5097911;28;20085;-76
2023/10/13 00:55:13;;;;;;;11.00;9.90;;;;;;;;;;5099254;28;20035;-78
2023/10/13 00:57:40;;;;;;;14.15;12.43;;;;;;;;;;5100469;28;20649;-77
2023/10/13 01:00:18;;;;;;;11.50;9.90;;;;;;;;;;5099608;28;20428;-77
2023/10/13 01:02:45;;;;;;;13.55;10.18;;;;;;;;;;5097822;28;20433;-77
2023/10/13 01:05:19;;;;;;;14.32;10.25;;;;;;;;;;5086705;28;20063;-77
2023/10/13 01:07:46;;;;;;;12.05;10.27;;;;;;;;;;5087435;28;20043;-82
2023/10/13 01:10:14;;;;;;;13.57;10.23;;;;;;;;;;5095526;28;20462;-78
2023/10/13 01:12:43;;;;;;;17.67;10.82;;;;;;;;;;5089869;28;20465;-77
2023/10/13 01:15:11;;;;;;;12.30;11.00;;;;;;;;;;5096633;28;20740;-76
2023/10/13 01:17:36;;;;;;;11.35;9.85;;;;;;;;;;5084760;28;20031;-80
2023/10/13 01:20:04;;;;;;;16.08;12.75;;;;;;;;;;5096636;28;20031;-78
2023/10/13 01:22:31;;;;;;;13.73;12.27;;;;;;;;;;5096530;28;20032;-77
2023/10/13 01:25:05;;;;;;;13.98;11.98;;;;;;;;;;5098834;28;20101;-77
2023/10/13 01:27:30;;;;;;;12.90;11.23;;;;;;;;;;5097740;28;20031;-76
2023/10/13 01:30:05;;;;;;;12.82;10.55;;;;;;;;;;5095252;28;20028;-77
2023/10/13 01:32:31;;;;;;;11.40;9.80;;;;;;;;;;5098005;28;20036;-80
2023/10/13 01:34:57;;;;;;;11.10;9.88;;;;;;;;;;5097598;28;20055;-79
2023/10/13 01:37:23;;;;;;;13.23;11.85;;;;;;;;;;5099519;28;20513;-75
2023/10/13 01:39:49;;;;;;;10.20;9.02;;;;;;;;;;5098228;28;20028;-75
2023/10/13 01:42:19;;;;;;;11.23;9.82;;;;;;;;;;5098862;28;20051;-76
2023/10/13 01:44:45;;;;;;;11.30;9.60;;;;;;;;;;5097274;28;20036;-77
2023/10/13 01:47:10;;;;;;;12.65;9.05;;;;;;;;;;5097296;28;20030;-77
2023/10/13 01:49:49;;;;;;;11.25;10.05;;;;;;;;;;5097193;28;20028;-76
2023/10/13 01:52:15;;;;;;;12.80;10.45;;;;;;;;;;5098044;28;20070;-79
2023/10/13 01:54:44;;;;;;;13.52;9.73;;;;;;;;;;5094667;28;20059;-76
2023/10/13 01:57:14;;;;;;;11.57;10.38;;;;;;;;;;5097353;28;20019;-78
2023/10/13 01:59:44;;;;;;;12.70;11.00;;;;;;;;;;5095668;28;20034;-79
2023/10/13 02:02:12;;;;;;;11.73;10.57;;;;;;;;;;5084493;28;20016;-78
2023/10/13 02:04:42;;;;;;;13.27;11.00;;;;;;;;;;5098492;28;20027;-76
2023/10/13 02:07:08;;;;;;;15.57;11.95;;;;;;;;;;5097372;28;20023;-77
2023/10/13 02:09:36;;;;;;;13.90;12.20;;;;;;;;;;5094846;28;20115;-78
2023/10/13 02:12:02;;;;;;;17.58;14.80;;;;;;;;;;5089916;28;20027;-77
2023/10/13 02:14:27;;;;;;;17.33;13.82;;;;;;;;;;5093587;28;20531;-77
2023/10/13 02:17:11;;;;;;;13.32;11.38;;;;;;;;;;5086531;28;20032;-76
2023/10/13 02:19:39;;;;;;;12.38;10.73;;;;;;;;;;5091129;28;20036;-79
2023/10/13 02:22:08;;;;;;;11.73;9.43;;;;;;;;;;5107853;27;20069;-78
2023/10/13 02:24:33;;;;;;;10.13;9.13;;;;;;;;;;5093825;28;20031;-78
2023/10/13 02:27:04;;;;;;;12.20;9.63;;;;;;;;;;5088546;28;20035;-79
2023/10/13 02:29:29;;;;;;;13.23;9.05;;;;;;;;;;5097391;28;20059;-76
2023/10/13 02:31:55;;;;;;;10.27;8.95;;;;;;;;;;5097574;27;20418;-79
2023/10/13 02:34:22;;;;;;;9.45;8.55;;;;;;;;;;5093723;28;20549;-77
2023/10/13 02:36:54;;;;;;;8.88;7.50;;;;;;;;;;5089175;28;21447;-77
2023/10/13 02:39:32;;;;;;;12.45;8.60;;;;;;;;;;5081747;28;20020;-75
2023/10/13 02:41:58;;;;;;;12.00;8.50;;;;;;;;;;5086740;28;20019;-77
2023/10/13 02:44:33;;;;;;;12.38;9.30;;;;;;;;;;5097853;28;20046;-78
2023/10/13 02:46:58;;;;;;;10.32;8.40;;;;;;;;;;5093329;28;20027;-77
2023/10/13 02:49:26;;;;;;;10.02;8.90;;;;;;;;;;5094489;28;20031;-80
2023/10/13 02:51:52;;;;;;;9.20;8.30;;;;;;;;;;5093307;28;20024;-77
2023/10/13 02:54:18;;;;;;;10.25;9.02;;;;;;;;;;5095295;28;20036;-77
2023/10/13 02:56:49;;;;;;;9.48;8.52;;;;;;;;;;5127787;27;20031;-75
2023/10/13 02:59:33;;;;;;;10.50;8.18;;;;;;;;;;5093993;28;20328;-75
2023/10/13 03:01:59;;;;;;;12.43;8.52;;;;;;;;;;5096452;28;20034;-79
2023/10/13 03:04:25;;;;;;;9.85;8.85;;;;;;;;;;5093689;28;20040;-77
2023/10/13 03:06:51;;;;;;;12.93;8.55;;;;;;;;;;5095615;28;20046;-77
2023/10/13 03:09:21;;;;;;;9.98;8.68;;;;;;;;;;5095056;28;20411;-76
2023/10/13 03:11:48;;;;;;;10.25;8.57;;;;;;;;;;5097727;28;20028;-76
2023/10/13 03:14:24;;;;;;;10.00;8.55;;;;;;;;;;5096078;28;20031;-76
2023/10/13 03:17:06;;;;;;;9.82;8.35;;;;;;;;;;5108418;27;20035;-79
2023/10/13 03:19:35;;;;;;;12.85;9.88;;;;;;;;;;5094940;28;20028;-78
2023/10/13 03:22:30;;;;;;;12.90;9.57;;;;;;;;;;5097136;28;20072;-78
2023/10/13 03:24:53;;;;;;;13.27;9.18;;;;;;;;;;5094973;28;20036;-77
2023/10/13 03:27:38;;;;;;;10.68;9.05;;;;;;;;;;5092910;28;20113;-79
2023/10/13 03:30:10;;;;;;;10.40;9.30;;;;;;;;;;5095337;28;20035;-80
2023/10/13 03:32:36;;;;;;;12.63;9.43;;;;;;;;;;5095127;28;20426;-78
2023/10/13 03:40:06;;;;;;;10.68;8.32;;;;;;;;;;5086940;28;20109;-78
2023/10/13 03:42:32;;;;;;;9.77;8.77;;;;;;;;;;5084850;28;20537;-78
2023/10/13 03:44:57;;;;;;;9.48;8.57;;;;;;;;;;5093554;28;20089;-79
2023/10/13 03:47:32;;;;;;;12.43;9.57;;;;;;;;;;5095124;28;20031;-77
2023/10/13 03:50:16;;;;;;;10.20;8.93;;;;;;;;;;5090969;28;20035;-79
2023/10/13 03:52:41;;;;;;;10.77;9.23;;;;;;;;;;5089119;28;20038;-81
2023/10/13 03:55:08;;;;;;;10.98;9.88;;;;;;;;;;5081452;28;20036;-78
2023/10/13 03:57:34;;;;;;;14.35;10.15;;;;;;;;;;5097022;28;20324;-77
2023/10/13 04:00:08;;;;;;;11.38;10.27;;;;;;;;;;5089917;28;20066;-79
2023/10/13 04:02:33;;;;;;;12.07;10.80;;;;;;;;;;5096694;28;20039;-78
2023/10/13 04:05:07;;;;;;;12.73;11.13;;;;;;;;;;5079423;28;20435;-78
2023/10/13 04:15:36;;;;;;;25.05;20.77;;;;;;;;;;5082623;28;20039;-77
2023/10/13 04:18:13;;;;;;;19.92;16.77;;;;;;;;;;5076548;28;20027;-76
2023/10/13 04:20:39;;;;;;;24.00;18.98;;;;;;;;;;5074940;28;20032;-76
2023/10/13 04:23:18;;;;;;;21.17;16.85;;;;;;;;;;5073716;28;20359;-79
2023/10/13 04:36:16;;;;;;;42.17;33.95;;;;;;;;;;5069081;28;20109;-79
2023/10/13 04:38:57;;;;;;;35.63;26.10;;;;;;;;;;5070482;28;20020;-76
2023/10/13 04:41:31;;;;;;;26.88;19.52;;;;;;;;;;5068709;28;20032;-78
2023/10/13 04:44:23;;;;;;;21.42;17.98;;;;;;;;;;5070635;28;20030;-80
2023/10/13 04:49:28;;;;;;;20.92;17.40;;;;;;;;;;5076353;28;20111;-75
2023/10/13 04:52:26;;;;;;;17.40;14.45;;;;;;;;;;5070452;28;20065;-79
2023/10/13 04:54:49;;;;;;;19.35;15.23;;;;;;;;;;5067894;28;20111;-78
2023/10/13 05:02:54;;;;;;;21.98;17.95;;;;;;;;;;5068018;28;22333;-76
2023/10/13 06:29:27;;;;;;;42.75;33.50;;;;;;;;;;5094475;28;20076;-76
2023/10/13 06:31:52;;;;;;;37.08;30.92;;;;;;;;;;5095838;28;20023;-76
2023/10/13 06:34:20;;;;;;;32.95;27.35;;;;;;;;;;5090124;28;20108;-76
2023/10/13 06:36:47;;;;;;;30.73;26.02;;;;;;;;;;5093027;28;20105;-79
2023/10/13 06:41:56;;;;;;;26.48;22.42;;;;;;;;;;5096285;28;20100;-76
2023/10/13 06:44:23;;;;;;;22.95;20.50;;;;;;;;;;5096343;28;20439;-76
2023/10/13 06:46:49;;;;;;;23.23;19.92;;;;;;;;;;5096743;28;20027;-76
2023/10/13 06:49:18;;;;;;;22.95;20.52;;;;;;;;;;5097238;28;20356;-78
2023/10/13 06:51:46;;;;;;;24.42;21.85;;;;;;;;;;5097010;28;20027;-77
2023/10/13 06:54:19;;;;;;;24.55;21.83;;;;;;;;;;5098405;28;20059;-76
2023/10/13 06:56:45;;;;;;;22.42;20.10;;;;;;;;;;5094894;28;20106;-76
2023/10/13 06:59:14;;;;;;;23.58;19.40;;;;;;;;;;5093097;28;20027;-79
2023/10/13 07:01:40;;;;;;;20.38;16.13;;;;;;;;;;5094792;28;20042;-76
2023/10/13 07:04:15;;;;;;;19.40;15.20;;;;;;;;;;5091595;28;20082;-77
2023/10/13 07:06:50;;;;;;;18.13;16.02;;;;;;;;;;5097943;28;20122;-77
2023/10/13 07:09:39;;;;;;;17.10;13.13;;;;;;;;;;5096083;28;20118;-75
2023/10/13 07:12:16;;;;;;;20.55;13.90;;;;;;;;;;5094772;28;20072;-75
2023/10/13 07:14:51;;;;;;;26.63;14.00;;;;;;;;;;5096287;28;20349;-76
2023/10/13 07:17:23;;;;;;;23.63;18.17;;;;;;;;;;5095463;28;20443;-77
2023/10/13 07:19:53;;;;;;;18.33;14.38;;;;;;;;;;5093449;28;20098;-76
2023/10/13 07:22:19;;;;;;;14.75;10.35;;;;;;;;;;5096956;28;20027;-75
2023/10/13 07:24:50;;;;;;;10.20;9.13;;;;;;;;;;5096757;28;20027;-78
2023/10/13 07:27:24;;;;;;;10.52;9.43;;;;;;;;;;5095252;28;20030;-78
2023/10/13 07:30:13;;;;;;;14.30;10.70;;;;;;;;;;5097178;28;20447;-77
2023/10/13 07:32:44;;;;;;;16.23;10.82;;;;;;;;;;5096059;28;20063;-76
2023/10/13 07:35:10;;;;;;;11.32;9.98;;;;;;;;;;5094925;28;20082;-78
2023/10/13 07:37:35;;;;;;;14.07;10.85;;;;;;;;;;5095756;28;20036;-77
2023/10/13 07:40:01;;;;;;;23.08;16.00;;;;;;;;;;5094873;28;20419;-77
2023/10/13 07:42:38;;;;;;;19.60;14.50;;;;;;;;;;5094112;27;20123;-76
2023/10/13 07:45:04;;;;;;;12.95;11.55;;;;;;;;;;5096536;28;20092;-77
2023/10/13 07:47:32;;;;;;;11.43;10.07;;;;;;;;;;5095677;28;20035;-77
2023/10/13 07:49:58;;;;;;;13.73;10.10;;;;;;;;;;5096202;28;20026;-79
2023/10/13 07:52:36;;;;;;;9.13;7.80;;;;;;;;;;5097804;28;20027;-76
2023/10/13 07:55:11;;;;;;;8.85;7.93;;;;;;;;;;5094713;28;20024;-77
2023/10/13 07:57:56;;;;;;;11.05;8.18;;;;;;;;;;5095406;28;20015;-77
2023/10/13 08:03:56;;;;;;;9.88;7.70;;;;;;;;;;5095655;28;20042;-77
2023/10/13 08:06:07;;;;;;;10.00;8.13;;;;;;;;;;5089054;28;20089;-76
2023/10/13 08:08:37;;;;;;;23.38;19.73;;;;;;;;;;5096362;28;20024;-76
2023/10/13 08:11:24;;;;;;;12.48;10.52;;;;;;;;;;5095873;28;20360;-76
2023/10/13 08:13:59;;;;;;;13.15;9.30;;;;;;;;;;5095846;28;20043;-77
2023/10/13 08:19:15;;;;;;;11.18;8.93;;;;;;;;;;5097482;28;20350;-77
2023/10/13 08:21:48;;;;;;;11.93;8.73;;;;;;;;;;5096149;28;20024;-74
2023/10/13 08:24:15;;;;;;;9.60;8.00;;;;;;;;;;5095282;28;20107;-76
2023/10/13 08:37:28;;;;;;;9.90;8.10;;;;;;;;;;5094751;28;20039;-78
2023/10/13 08:45:20;;;;;;;11.35;7.40;;;;;;;;;;5094866;28;20038;-78
2023/10/13 08:48:07;;;;;;;9.80;7.95;;;;;;;;;;5098776;28;20019;-76
2023/10/13 08:53:51;;;;;;;16.42;13.07;;;;;;;;;;5091840;28;20034;-77
2023/10/13 08:56:43;;;;;;;14.73;11.63;;;;;;;;;;5085465;28;20110;-76
2023/10/13 08:59:22;;;;;;;12.25;10.98;;;;;;;;;;5092705;28;20377;-76
2023/10/13 09:01:59;;;;;;;12.10;10.60;;;;;;;;;;5087152;28;20026;-78
2023/10/13 09:04:33;;;;;;;13.10;10.40;;;;;;;;;;5086061;28;21364;-76
2023/10/13 09:09:34;;;;;;;11.32;9.80;;;;;;;;;;5085428;28;20080;-81
2023/10/13 09:12:09;;;;;;;10.93;9.55;;;;;;;;;;5085603;28;20063;-81
2023/10/13 09:14:42;;;;;;;13.18;9.90;;;;;;;;;;5086193;28;20023;-80
2023/10/13 09:17:53;;;;;;;15.75;10.23;;;;;;;;;;5084535;28;20050;-78
2023/10/13 09:19:56;;;;;;;10.95;9.73;;;;;;;;;;5071776;28;20042;-76
2023/10/13 09:22:27;;;;;;;13.13;9.73;;;;;;;;;;5080093;28;20123;-78
2023/10/13 09:24:58;;;;;;;13.27;9.38;;;;;;;;;;5089891;28;20259;-77
2023/10/13 09:27:27;;;;;;;11.63;8.85;;;;;;;;;;5087457;28;20027;-76
2023/10/13 09:29:56;;;;;;;11.55;8.82;;;;;;;;;;5077596;28;20375;-77
2023/10/13 09:32:21;;;;;;;13.35;9.43;;;;;;;;;;5081963;28;20105;-78
2023/10/13 09:34:50;;;;;;;13.95;9.20;;;;;;;;;;5082574;28;20056;-77
2023/10/13 09:37:20;;;;;;;10.13;8.95;;;;;;;;;;5080402;28;20982;-76
2023/10/13 09:39:48;;;;;;;12.95;9.23;;;;;;;;;;5083075;28;20032;-80
2023/10/13 09:42:16;;;;;;;11.57;9.02;;;;;;;;;;5082377;28;20058;-76
2023/10/13 09:44:41;;;;;;;9.10;8.02;;;;;;;;;;5083083;28;20039;-79
2023/10/13 09:47:16;;;;;;;8.77;7.88;;;;;;;;;;5083439;28;20048;-75
2023/10/13 09:49:49;;;;;;;13.77;8.80;;;;;;;;;;5085806;28;20031;-75
2023/10/13 09:52:19;;;;;;;11.70;8.07;;;;;;;;;;5081318;28;20436;-76
2023/10/13 09:54:59;;;;;;;14.90;9.07;;;;;;;;;;5098556;27;20355;-76
2023/10/13 09:57:28;;;;;;;10.98;7.70;;;;;;;;;;5082734;28;20216;-77
2023/10/13 10:00:46;;;;;;;12.32;8.30;;;;;;;;;;5085496;28;20118;-80
2023/10/13 10:06:06;;;;;;;11.40;8.48;;;;;;;;;;5084991;28;20043;-78
2023/10/13 10:08:36;;;;;;;8.80;7.72;;;;;;;;;;5085205;28;20026;-77
2023/10/13 10:11:04;;;;;;;9.23;7.93;;;;;;;;;;5091372;28;20036;-77
2023/10/13 10:14:04;;;;;;;11.25;7.55;;;;;;;;;;5078237;28;20024;-76
2023/10/13 10:16:49;;;;;;;11.73;7.82;;;;;;;;;;5080418;28;20032;-77
2023/10/13 10:19:14;;;;;;;9.52;7.03;;;;;;;;;;5082455;28;20043;-77
2023/10/13 10:21:41;;;;;;;7.93;7.10;;;;;;;;;;5086251;28;20092;-78
2023/10/13 10:24:36;;;;;;;8.63;6.97;;;;;;;;;;5082197;28;20348;-80
2023/10/13 10:27:04;;;;;;;9.38;7.40;;;;;;;;;;4998925;28;20125;-83
2023/10/13 10:29:32;;;;;;;10.95;7.60;;;;;;;;;;5006288;28;20095;-77
2023/10/13 10:31:57;;;;;;;8.52;6.55;;;;;;;;;;5008884;28;20109;-79
2023/10/13 10:34:32;;;;;;;7.80;6.88;;;;;;;;;;5010688;28;20425;-79
2023/10/13 10:36:58;;;;;;;9.80;6.47;;;;;;;;;;5011833;28;20045;-77
2023/10/13 10:39:33;;;;;;;9.70;6.35;;;;;;;;;;5012825;28;20107;-77
2023/10/13 10:42:07;;;;;;;9.50;6.55;;;;;;;;;;5005601;28;20061;-77
2023/10/13 10:44:42;;;;;;;8.93;6.18;;;;;;;;;;4998825;28;20476;-78
2023/10/13 10:47:11;;;;;;;9.65;6.07;;;;;;;;;;5014508;28;20044;-77
2023/10/13 10:49:37;;;;;;;8.63;6.72;;;;;;;;;;5009856;28;20037;-77
2023/10/13 10:52:04;;;;;;;9.90;6.30;;;;;;;;;;5014668;28;20513;-79
2023/10/13 10:54:32;;;;;;;8.60;6.20;;;;;;;;;;5012338;28;20025;-77
2023/10/13 10:57:10;;;;;;;8.82;6.25;;;;;;;;;;5009514;28;20467;-74
2023/10/13 10:59:37;;;;;;;10.90;6.55;;;;;;;;;;5015586;28;20083;-80
2023/10/13 11:02:02;;;;;;;8.32;6.13;;;;;;;;;;5014907;28;20040;-76
2023/10/13 11:04:33;;;;;;;7.20;5.82;;;;;;;;;;5094663;28;20039;-76
2023/10/13 11:06:59;;;;;;;12.23;6.47;;;;;;;;;;5098534;28;20027;-77
2023/10/13 11:11:57;;;;;;;15.32;12.20;;;;;;;;;;5097386;27;20031;-76
2023/10/13 11:14:24;;;;;;;14.40;10.85;;;;;;;;;;5097788;28;20088;-78
2023/10/13 11:17:00;;;;;;;8.88;5.93;;;;;;;;;;5094616;28;20031;-77
2023/10/13 11:19:41;;;;;;;9.65;6.45;;;;;;;;;;5097846;28;20035;-76
2023/10/13 11:22:10;;;;;;;7.57;4.93;;;;;;;;;;5097173;28;20031;-75
2023/10/13 11:24:42;;;;;;;7.20;5.07;;;;;;;;;;5096173;28;20458;-74
2023/10/13 11:27:20;;;;;;;5.88;4.28;;;;;;;;;;5096748;28;20110;-74
2023/10/13 11:29:52;;;;;;;8.73;5.68;;;;;;;;;;5093811;28;20024;-76
2023/10/13 11:32:20;;;;;;;8.30;4.53;;;;;;;;;;5094094;28;20174;-76
2023/10/13 11:34:45;;;;;;;7.10;4.63;;;;;;;;;;5094226;28;20047;-75
2023/10/13 11:37:37;;;;;;;8.40;4.70;;;;;;;;;;5095523;27;20251;-75
2023/10/13 11:40:12;;;;;;;9.00;4.32;;;;;;;;;;5095231;28;20052;-75
2023/10/13 11:42:43;;;;;;;8.38;4.95;;;;;;;;;;5097580;28;20027;-77
2023/10/13 11:47:59;;;;;;;8.55;5.50;;;;;;;;;;5094338;28;20084;-78
2023/10/13 11:50:33;;;;;;;11.00;5.93;;;;;;;;;;5094137;28;20022;-77
2023/10/13 11:52:59;;;;;;;8.32;5.38;;;;;;;;;;5094768;28;20084;-75
2023/10/13 11:55:24;;;;;;;10.63;5.68;;;;;;;;;;5096757;28;20023;-77
2023/10/13 11:57:49;;;;;;;8.38;5.53;;;;;;;;;;5094382;28;20019;-78
2023/10/13 12:00:26;;;;;;;8.82;5.25;;;;;;;;;;5098379;28;20366;-77
2023/10/13 12:05:49;;;;;;;10.32;5.90;;;;;;;;;;5095798;28;20458;-78
2023/10/13 12:08:21;;;;;;;8.32;5.78;;;;;;;;;;5095070;28;20023;-76
2023/10/13 12:10:59;;;;;;;7.28;5.55;;;;;;;;;;5096784;28;20080;-77
2023/10/13 12:13:25;;;;;;;8.32;6.32;;;;;;;;;;5094226;28;20035;-78
2023/10/13 12:15:51;;;;;;;8.15;5.95;;;;;;;;;;5095163;28;20036;-77
2023/10/13 12:18:19;;;;;;;9.10;6.15;;;;;;;;;;5096969;28;21048;-77
2023/10/13 12:20:45;;;;;;;8.50;5.43;;;;;;;;;;5097777;28;20335;-76
2023/10/13 12:23:15;;;;;;;8.15;5.30;;;;;;;;;;5100992;28;20032;-78
2023/10/13 12:26:00;;;;;;;7.32;5.15;;;;;;;;;;5097693;28;20332;-76
2023/10/13 12:28:26;;;;;;;14.15;9.07;;;;;;;;;;5102447;27;20105;-76
2023/10/13 12:30:52;;;;;;;9.30;5.85;;;;;;;;;;5099731;28;20051;-75
2023/10/13 12:33:24;;;;;;;6.68;4.55;;;;;;;;;;5097436;28;20845;-75
2023/10/13 12:48:55;;;;;;;9.75;4.88;;;;;;;;;;5101557;28;20043;-76
2023/10/13 12:49:49;;;;;;;9.02;4.88;;;;;;;;;;5097632;28;20347;-82
2023/10/13 12:52:16;;;;;;;10.25;6.47;;;;;;;;;;5093498;28;20032;-82
2023/10/13 12:54:58;;;;;;;9.20;5.43;;;;;;;;;;5098647;28;20038;-81
2023/10/13 12:57:24;;;;;;;7.57;4.90;;;;;;;;;;5131893;27;21463;-83
2023/10/13 12:59:53;;;;;;;9.07;3.92;;;;;;;;;;5095227;28;20027;-82
2023/10/13 13:02:20;;;;;;;7.43;4.38;;;;;;;;;;5089577;28;20141;-82
2023/10/13 13:04:48;;;;;;;9.68;4.80;;;;;;;;;;5099946;28;20068;-82
2023/10/13 13:07:13;;;;;;;10.03;5.00;;;;;;;;;;5098362;28;20030;-82
2023/10/13 13:09:41;;;;;;;7.63;4.68;;;;;;;;;;5099174;28;20043;-83
2023/10/13 13:12:07;;;;;;;9.52;4.80;;;;;;;;;;5098617;28;20024;-83
2023/10/13 13:14:34;;;;;;;7.97;4.30;;;;;;;;;;5096879;28;20085;-83
2023/10/13 13:17:04;;;;;;;7.15;3.50;;;;;;;;;;5095543;28;23342;-83
2023/10/13 13:19:38;;;;;;;7.85;4.47;;;;;;;;;;5086614;28;20023;-76
2023/10/13 13:22:04;;;;;;;9.63;4.38;;;;;;;;;;5097725;28;20347;-77
2023/10/13 13:24:30;;;;;;;7.38;4.30;;;;;;;;;;5096367;28;20091;-75
2023/10/13 13:27:05;;;;;;;6.85;4.15;;;;;;;;;;5099249;28;20031;-76
2023/10/13 13:29:30;;;;;;;8.70;4.60;;;;;;;;;;5087779;28;20049;-77
2023/10/13 13:31:56;;;;;;;8.77;4.32;;;;;;;;;;5099926;28;20339;-79
2023/10/13 13:34:21;;;;;;;6.95;3.90;;;;;;;;;;5098879;28;20047;-77
2023/10/13 13:36:52;;;;;;;8.52;4.07;;;;;;;;;;5099965;28;20055;-77
2023/10/13 13:39:27;;;;;;;8.07;4.45;;;;;;;;;;5098787;28;20034;-77
2023/10/13 13:41:56;;;;;;;5.53;4.03;;;;;;;;;;5096319;28;20026;-77
2023/10/13 13:44:28;;;;;;;7.75;4.40;;;;;;;;;;5097162;28;20039;-78
2023/10/13 13:46:56;;;;;;;7.40;4.68;;;;;;;;;;5090377;28;20059;-80
2023/10/13 13:49:28;;;;;;;7.72;4.40;;;;;;;;;;5101410;28;20694;-80
2023/10/13 13:51:54;;;;;;;6.43;4.20;;;;;;;;;;5097691;28;20055;-77
2023/10/13 13:54:19;;;;;;;9.93;4.55;;;;;;;;;;5096480;28;20865;-76
2023/10/13 13:56:45;;;;;;;8.93;4.75;;;;;;;;;;5096742;28;20020;-77
2023/10/13 13:59:15;;;;;;;16.13;10.07;;;;;;;;;;5099288;28;20031;-78
2023/10/13 14:01:40;;;;;;;19.73;15.10;;;;;;;;;;5085512;28;20028;-77
2023/10/13 14:04:06;;;;;;;13.15;7.25;;;;;;;;;;5089872;28;20060;-78
2023/10/13 14:06:34;;;;;;;10.43;5.72;;;;;;;;;;5080871;28;20032;-78
2023/10/13 14:09:02;;;;;;;9.40;5.45;;;;;;;;;;5073098;28;20036;-79
2023/10/13 14:14:28;;;;;;;10.27;5.80;;;;;;;;;;5071592;28;20040;-77
2023/10/13 14:17:02;;;;;;;8.10;4.90;;;;;;;;;;5071048;28;20060;-78
2023/10/13 14:19:27;;;;;;;10.63;4.97;;;;;;;;;;5071611;28;20032;-78
2023/10/13 14:21:53;;;;;;;8.82;5.13;;;;;;;;;;5069148;28;20036;-79
2023/10/13 14:24:27;;;;;;;9.38;5.68;;;;;;;;;;5071198;28;20020;-79
2023/10/13 14:26:53;;;;;;;7.28;5.00;;;;;;;;;;5073854;28;20045;-77
2023/10/13 14:29:18;;;;;;;9.15;5.15;;;;;;;;;;5071950;28;20897;-76
2023/10/13 14:31:43;;;;;;;9.13;6.68;;;;;;;;;;5070168;28;20466;-80
2023/10/13 14:34:10;;;;;;;10.05;5.45;;;;;;;;;;5070059;28;20055;-77
2023/10/13 14:36:35;;;;;;;8.45;4.43;;;;;;;;;;5074425;28;20077;-79
2023/10/13 14:39:01;;;;;;;8.68;4.70;;;;;;;;;;5069821;28;20355;-77
2023/10/13 14:41:26;;;;;;;9.98;5.50;;;;;;;;;;5072955;28;20454;-80
2023/10/13 14:43:52;;;;;;;10.40;6.18;;;;;;;;;;5071412;28;20031;-77
2023/10/13 14:46:18;;;;;;;12.50;6.72;;;;;;;;;;5073587;28;20024;-76
2023/10/13 14:48:44;;;;;;;14.35;7.47;;;;;;;;;;5071456;28;20348;-78
2023/10/13 14:51:18;;;;;;;11.20;6.32;;;;;;;;;;5072864;28;20035;-76
2023/10/13 14:53:47;;;;;;;9.25;5.55;;;;;;;;;;5070005;28;20569;-77
2023/10/13 14:56:12;;;;;;;10.02;5.43;;;;;;;;;;5070277;28;20023;-75
2023/10/13 14:58:44;;;;;;;13.25;5.55;;;;;;;;;;5073259;28;20088;-78
2023/10/13 15:01:10;;;;;;;15.20;8.63;;;;;;;;;;5072324;28;20031;-76
2023/10/13 15:03:37;;;;;;;19.15;11.60;;;;;;;;;;5073276;28;20032;-76
2023/10/13 15:06:03;;;;;;;27.55;21.10;;;;;;;;;;5071068;28;20455;-77
2023/10/13 15:08:28;;;;;;;31.73;22.15;;;;;;;;;;5070476;28;20020;-76
2023/10/13 15:10:54;;;;;;;22.08;17.55;;;;;;;;;;5071479;28;20073;-75
2023/10/13 15:13:19;;;;;;;18.83;12.30;;;;;;;;;;5069769;28;20426;-76
2023/10/13 15:15:44;;;;;;;15.32;8.85;;;;;;;;;;5068349;28;20031;-76
2023/10/13 15:18:11;;;;;;;14.27;7.63;;;;;;;;;;5081033;28;20024;-75
2023/10/13 15:20:43;;;;;;;10.15;6.53;;;;;;;;;;5083559;28;20341;-81
2023/10/13 15:23:14;;;;;;;12.00;7.47;;;;;;;;;;5083396;28;20086;-82
2023/10/13 15:25:49;;;;;;;13.60;7.78;;;;;;;;;;5084802;28;20020;-87
2023/10/13 15:28:18;;;;;;;13.55;8.30;;;;;;;;;;5084153;28;20059;-84
2023/10/13 15:30:56;;;;;;;11.10;7.40;;;;;;;;;;5085184;28;20056;-81
2023/10/13 15:33:23;;;;;;;14.18;5.68;;;;;;;;;;5082212;28;20038;-84
2023/10/13 15:35:49;;;;;;;7.97;4.85;;;;;;;;;;5089184;28;20070;-85
2023/10/13 15:38:17;;;;;;;7.82;5.15;;;;;;;;;;5121515;27;20024;-81
2023/10/13 15:40:43;;;;;;;11.10;5.25;;;;;;;;;;5095735;28;20118;-83
2023/10/13 15:43:08;;;;;;;9.40;4.80;;;;;;;;;;5094718;28;20067;-83
2023/10/13 15:45:39;;;;;;;6.10;4.15;;;;;;;;;;5093766;28;20094;-81
2023/10/13 15:48:04;;;;;;;8.80;5.47;;;;;;;;;;5087274;28;20023;-78
2023/10/13 15:50:39;;;;;;;9.32;5.07;;;;;;;;;;5083354;28;20024;-81
2023/10/13 15:53:04;;;;;;;10.57;5.55;;;;;;;;;;5079842;28;20055;-79
2023/10/13 15:55:34;;;;;;;10.98;5.85;;;;;;;;;;5079899;28;20104;-80
2023/10/13 15:57:59;;;;;;;11.95;5.13;;;;;;;;;;5078298;28;20035;-83
2023/10/13 16:00:29;;;;;;;13.70;7.45;;;;;;;;;;5089447;28;20031;-80
2023/10/13 16:02:56;;;;;;;11.68;7.40;;;;;;;;;;5094678;28;20139;-81
2023/10/13 16:05:23;;;;;;;10.70;7.13;;;;;;;;;;5093978;28;20100;-77
2023/10/13 16:07:52;;;;;;;9.15;5.03;;;;;;;;;;5092677;28;20024;-77
2023/10/13 16:10:20;;;;;;;6.32;4.78;;;;;;;;;;5095127;28;20492;-78
2023/10/13 16:12:46;;;;;;;12.63;6.82;;;;;;;;;;5092051;28;20039;-79
2023/10/13 16:15:13;;;;;;;14.10;7.70;;;;;;;;;;5096175;28;20028;-76
2023/10/13 16:17:39;;;;;;;11.68;7.55;;;;;;;;;;5092722;28;20330;-79
2023/10/13 16:20:12;;;;;;;14.55;7.75;;;;;;;;;;5091742;28;20020;-78
2023/10/13 16:22:37;;;;;;;13.65;7.85;;;;;;;;;;5094160;28;20111;-81
2023/10/13 16:25:06;;;;;;;13.07;8.20;;;;;;;;;;5081456;28;20530;-79
2023/10/13 16:27:35;;;;;;;13.55;7.68;;;;;;;;;;5090797;28;20032;-82
2023/10/13 16:30:00;;;;;;;17.65;9.95;;;;;;;;;;5058985;28;20035;-79
2023/10/13 16:32:26;;;;;;;13.77;7.53;;;;;;;;;;5059033;28;20345;-83
2023/10/13 16:34:51;;;;;;;17.58;7.18;;;;;;;;;;5070548;28;20098;-78
2023/10/13 16:37:17;;;;;;;13.00;6.70;;;;;;;;;;5069794;28;20024;-83
2023/10/13 16:39:44;;;;;;;9.82;6.65;;;;;;;;;;5057434;28;20480;-82
2023/10/13 16:42:11;;;;;;;11.52;6.40;;;;;;;;;;5060779;28;20024;-78
2023/10/13 16:44:38;;;;;;;11.95;9.10;;;;;;;;;;5043943;28;20055;-83
2023/10/13 16:47:04;;;;;;;14.07;8.88;;;;;;;;;;5049929;28;20041;-80
2023/10/13 16:49:30;;;;;;;11.40;7.70;;;;;;;;;;5047228;28;20082;-78
2023/10/13 16:51:55;;;;;;;13.30;9.93;;;;;;;;;;5049326;28;20036;-78
2023/10/13 16:54:21;;;;;;;15.93;9.20;;;;;;;;;;5048917;28;20421;-82
2023/10/13 16:56:46;;;;;;;14.82;10.98;;;;;;;;;;5053150;28;20032;-82
2023/10/13 16:59:12;;;;;;;11.32;8.65;;;;;;;;;;5046106;28;21241;-80
2023/10/13 17:01:37;;;;;;;9.73;7.05;;;;;;;;;;5068709;28;20585;-78
2023/10/13 17:04:04;;;;;;;13.63;7.13;;;;;;;;;;5074243;28;20310;-80
2023/10/13 17:06:30;;;;;;;9.63;6.28;;;;;;;;;;5082198;28;20175;-76
2023/10/13 17:08:55;;;;;;;23.00;11.90;;;;;;;;;;5085131;28;20119;-77
2023/10/13 17:11:21;;;;;;;26.83;16.40;;;;;;;;;;5084964;28;20024;-77
2023/10/13 17:13:48;;;;;;;22.50;14.07;;;;;;;;;;5085597;28;20031;-79
2023/10/13 17:16:17;;;;;;;21.77;13.55;;;;;;;;;;5073487;28;20027;-77
2023/10/13 17:18:43;;;;;;;37.47;23.55;;;;;;;;;;5069757;28;20420;-77
2023/10/13 17:21:19;;;;;;;73.10;49.30;;;;;;;;;;5072161;28;20028;-78
2023/10/13 17:23:50;;;;;;;51.97;39.40;;;;;;;;;;5069279;28;20039;-76
2023/10/13 17:26:16;;;;;;;39.30;28.60;;;;;;;;;;5069057;28;20759;-77
2023/10/13 17:28:42;;;;;;;42.88;28.38;;;;;;;;;;5074323;28;20112;-80
2023/10/13 17:31:08;;;;;;;75.43;45.58;;;;;;;;;;5072394;28;20443;-78
2023/10/13 17:33:38;;;;;;;52.63;31.45;;;;;;;;;;5075369;28;20035;-79
2023/10/13 17:36:06;;;;;;;76.25;45.65;;;;;;;;;;5078031;28;20023;-80
2023/10/13 17:38:32;;;;;;;96.45;52.55;;;;;;;;;;5071660;28;20023;-79
2023/10/13 17:40:59;;;;;;;29.63;19.88;;;;;;;;;;5071017;28;20035;-80